Urb Plaza de la Fuente, Puerto Rico
Current Conditions -  °F | °C
As of 2:56 AM on Friday 26 Dec 2014 (Local Time) from TJSJ Reporting Station
Scattered Clouds Scattered Clouds  
Wind Chill: 74°   Ceiling: Unl
Heat Index: 74°   Visibility: 10mi
Dew Point: 72°   Wind: 3mph
Humidity: 93%   Direction: 180°S
Pressure: 30.03"   Gusts: NA
Location:  18.3893°N, 66.2481°W
Report Text: TJSJ 260656Z 18003KT 10SM FEW028 SCT036 23/22 A3003 RMK AO2 SLP167 T02330222
Loading
Personal Weather Stations






























Interactive Weather Map New forecast layout! Learn more

10-Day Weather Forecast

Advertisements
Track Severe Weather on mobile